sensor_id;sensor_type;location;lat;lon;timestamp;temperature;humidity
13496;DHT22;6820;49.374;8.452;2023-02-01T00:01:30;5.87;99.99
13496;DHT22;6820;49.374;8.452;2023-02-01T00:05:31;5.87;99.99
13496;DHT22;6820;49.374;8.452;2023-02-01T00:09:33;5.88;99.99
13496;DHT22;6820;49.374;8.452;2023-02-01T00:13:35;5.88;99.99
13496;DHT22;6820;49.374;8.452;2023-02-01T00:17:41;5.90;99.99
13496;DHT22;6820;49.374;8.452;2023-02-01T00:21:42;5.87;99.99
13496;DHT22;6820;49.374;8.452;2023-02-01T00:25:45;5.88;99.99
13496;DHT22;6820;49.374;8.452;2023-02-01T00:29:47;5.87;99.99
13496;DHT22;6820;49.374;8.452;2023-02-01T00:33:48;5.90;99.99
13496;DHT22;6820;49.374;8.452;2023-02-01T00:37:50;5.92;99.99
13496;DHT22;6820;49.374;8.452;2023-02-01T00:41:52;5.92;99.99
13496;DHT22;6820;49.374;8.452;2023-02-01T00:45:54;5.95;99.99
13496;DHT22;6820;49.374;8.452;2023-02-01T00:49:56;5.96;99.99
13496;DHT22;6820;49.374;8.452;2023-02-01T00:53:57;5.98;99.99
13496;DHT22;6820;49.374;8.452;2023-02-01T00:57:59;5.98;99.99
13496;DHT22;6820;49.374;8.452;2023-02-01T01:02:01;5.99;99.99
13496;DHT22;6820;49.374;8.452;2023-02-01T01:06:04;6.01;99.99
13496;DHT22;6820;49.374;8.452;2023-02-01T01:10:09;6.03;99.99
13496;DHT22;6820;49.374;8.452;2023-02-01T01:14:11;6.06;99.99
13496;DHT22;6820;49.374;8.452;2023-02-01T01:18:13;6.08;99.99
13496;DHT22;6820;49.374;8.452;2023-02-01T01:22:15;6.06;99.99
13496;DHT22;6820;49.374;8.452;2023-02-01T01:26:17;6.08;99.99
13496;DHT22;6820;49.374;8.452;2023-02-01T01:30:21;6.06;99.99
13496;DHT22;6820;49.374;8.452;2023-02-01T01:34:24;6.06;99.99
13496;DHT22;6820;49.374;8.452;2023-02-01T01:38:25;6.06;99.99
13496;DHT22;6820;49.374;8.452;2023-02-01T01:42:27;6.08;99.99
13496;DHT22;6820;49.374;8.452;2023-02-01T01:46:33;6.08;99.99
13496;DHT22;6820;49.374;8.452;2023-02-01T01:50:50;6.11;99.99
13496;DHT22;6820;49.374;8.452;2023-02-01T01:54:55;6.11;99.99
13496;DHT22;6820;49.374;8.452;2023-02-01T01:58:59;6.14;99.99
13496;DHT22;6820;49.374;8.452;2023-02-01T02:03:37;6.14;99.99
13496;DHT22;6820;49.374;8.452;2023-02-01T02:07:39;6.14;99.99
13496;DHT22;6820;49.374;8.452;2023-02-01T02:11:42;6.14;99.99
13496;DHT22;6820;49.374;8.452;2023-02-01T02:15:59;6.16;99.99
13496;DHT22;6820;49.374;8.452;2023-02-01T02:24:34;6.16;99.99
13496;DHT22;6820;49.374;8.452;2023-02-01T02:29:13;6.16;99.99
13496;DHT22;6820;49.374;8.452;2023-02-01T02:42:02;6.14;99.99
13496;DHT22;6820;49.374;8.452;2023-02-01T02:46:36;6.16;99.99
13496;DHT22;6820;49.374;8.452;2023-02-01T02:51:06;6.16;99.99
13496;DHT22;6820;49.374;8.452;2023-02-01T02:55:31;6.16;99.99
13496;DHT22;6820;49.374;8.452;2023-02-01T02:59:37;6.14;99.99
13496;DHT22;6820;49.374;8.452;2023-02-01T03:03:59;6.16;99.99
13496;DHT22;6820;49.374;8.452;2023-02-01T03:08:14;6.19;99.99
13496;DHT22;6820;49.374;8.452;2023-02-01T03:12:18;6.17;99.99
13496;DHT22;6820;49.374;8.452;2023-02-01T03:16:41;6.24;99.99
13496;DHT22;6820;49.374;8.452;2023-02-01T03:20:57;6.28;99.99
13496;DHT22;6820;49.374;8.452;2023-02-01T03:25:02;6.30;99.99
13496;DHT22;6820;49.374;8.452;2023-02-01T03:29:10;6.33;99.99
13496;DHT22;6820;49.374;8.452;2023-02-01T03:33:21;6.35;99.99
13496;DHT22;6820;49.374;8.452;2023-02-01T03:37:27;6.35;99.99
13496;DHT22;6820;49.374;8.452;2023-02-01T03:41:47;6.35;99.99
13496;DHT22;6820;49.374;8.452;2023-02-01T03:45:54;6.38;99.99
13496;DHT22;6820;49.374;8.452;2023-02-01T03:50:03;6.39;99.99
13496;DHT22;6820;49.374;8.452;2023-02-01T03:54:09;6.39;99.99
13496;DHT22;6820;49.374;8.452;2023-02-01T03:58:15;6.40;99.99
13496;DHT22;6820;49.374;8.452;2023-02-01T04:02:19;6.45;99.99
13496;DHT22;6820;49.374;8.452;2023-02-01T04:06:21;6.43;99.99
13496;DHT22;6820;49.374;8.452;2023-02-01T04:10:23;6.45;99.99
13496;DHT22;6820;49.374;8.452;2023-02-01T04:14:25;6.46;99.99
13496;DHT22;6820;49.374;8.452;2023-02-01T04:18:26;6.48;99.99
13496;DHT22;6820;49.374;8.452;2023-02-01T04:22:28;6.46;99.99
13496;DHT22;6820;49.374;8.452;2023-02-01T04:26:30;6.45;99.99
13496;DHT22;6820;49.374;8.452;2023-02-01T04:30:32;6.42;99.99
13496;DHT22;6820;49.374;8.452;2023-02-01T04:34:34;6.40;99.99
13496;DHT22;6820;49.374;8.452;2023-02-01T04:38:35;6.42;99.99
13496;DHT22;6820;49.374;8.452;2023-02-01T04:42:37;6.43;99.99
13496;DHT22;6820;49.374;8.452;2023-02-01T04:46:38;6.43;99.99
13496;DHT22;6820;49.374;8.452;2023-02-01T04:50:40;6.43;99.99
13496;DHT22;6820;49.374;8.452;2023-02-01T04:54:42;6.43;99.99
13496;DHT22;6820;49.374;8.452;2023-02-01T04:58:43;6.43;99.99
13496;DHT22;6820;49.374;8.452;2023-02-01T05:02:45;6.48;99.99
13496;DHT22;6820;49.374;8.452;2023-02-01T05:06:46;6.48;99.99
13496;DHT22;6820;49.374;8.452;2023-02-01T05:10:48;6.50;99.99
13496;DHT22;6820;49.374;8.452;2023-02-01T05:14:50;6.50;99.99
13496;DHT22;6820;49.374;8.452;2023-02-01T05:18:52;6.51;99.99
13496;DHT22;6820;49.374;8.452;2023-02-01T05:22:54;6.51;99.99
13496;DHT22;6820;49.374;8.452;2023-02-01T05:26:56;6.50;99.99
13496;DHT22;6820;49.374;8.452;2023-02-01T05:30:57;6.50;99.99
13496;DHT22;6820;49.374;8.452;2023-02-01T05:34:59;6.48;99.99
13496;DHT22;6820;49.374;8.452;2023-02-01T05:39:01;6.43;99.99
13496;DHT22;6820;49.374;8.452;2023-02-01T05:43:03;6.42;99.99
13496;DHT22;6820;49.374;8.452;2023-02-01T05:47:05;6.40;99.99
13496;DHT22;6820;49.374;8.452;2023-02-01T05:51:07;6.38;99.99
13496;DHT22;6820;49.374;8.452;2023-02-01T05:55:08;6.36;99.99
13496;DHT22;6820;49.374;8.452;2023-02-01T05:59:10;6.33;99.99
13496;DHT22;6820;49.374;8.452;2023-02-01T06:03:12;6.27;99.99
13496;DHT22;6820;49.374;8.452;2023-02-01T06:07:14;6.28;99.99
13496;DHT22;6820;49.374;8.452;2023-02-01T06:11:15;6.21;99.99
13496;DHT22;6820;49.374;8.452;2023-02-01T06:15:32;6.21;99.99
13496;DHT22;6820;49.374;8.452;2023-02-01T06:19:33;6.19;99.99
13496;DHT22;6820;49.374;8.452;2023-02-01T06:23:35;6.14;99.99
13496;DHT22;6820;49.374;8.452;2023-02-01T06:27:37;6.14;99.99
13496;DHT22;6820;49.374;8.452;2023-02-01T06:31:38;6.17;99.99
13496;DHT22;6820;49.374;8.452;2023-02-01T06:35:41;6.17;99.99
13496;DHT22;6820;49.374;8.452;2023-02-01T06:39:45;6.19;99.99
13496;DHT22;6820;49.374;8.452;2023-02-01T06:43:46;6.19;99.99
13496;DHT22;6820;49.374;8.452;2023-02-01T06:47:48;6.19;99.99
13496;DHT22;6820;49.374;8.452;2023-02-01T06:51:49;6.19;99.99
13496;DHT22;6820;49.374;8.452;2023-02-01T06:55:55;6.21;99.99
13496;DHT22;6820;49.374;8.452;2023-02-01T06:59:57;6.28;99.99
13496;DHT22;6820;49.374;8.452;2023-02-01T07:03:59;6.35;99.99
13496;DHT22;6820;49.374;8.452;2023-02-01T07:08:01;6.38;99.99
13496;DHT22;6820;49.374;8.452;2023-02-01T07:12:03;6.35;99.99
13496;DHT22;6820;49.374;8.452;2023-02-01T07:16:05;6.36;99.99
13496;DHT22;6820;49.374;8.452;2023-02-01T07:20:10;6.38;99.99
13496;DHT22;6820;49.374;8.452;2023-02-01T07:24:11;6.38;99.99
13496;DHT22;6820;49.374;8.452;2023-02-01T07:28:13;6.39;99.99
13496;DHT22;6820;49.374;8.452;2023-02-01T07:32:15;6.35;99.99
13496;DHT22;6820;49.374;8.452;2023-02-01T07:36:19;6.32;99.99
13496;DHT22;6820;49.374;8.452;2023-02-01T07:40:20;6.32;99.99
13496;DHT22;6820;49.374;8.452;2023-02-01T07:44:29;6.32;99.99
13496;DHT22;6820;49.374;8.452;2023-02-01T07:48:31;6.33;99.99
13496;DHT22;6820;49.374;8.452;2023-02-01T07:52:34;6.36;99.99
13496;DHT22;6820;49.374;8.452;2023-02-01T07:56:36;6.46;99.99
13496;DHT22;6820;49.374;8.452;2023-02-01T08:00:37;6.53;99.99
13496;DHT22;6820;49.374;8.452;2023-02-01T08:04:57;6.57;99.99
13496;DHT22;6820;49.374;8.452;2023-02-01T08:08:59;6.53;99.99
13496;DHT22;6820;49.374;8.452;2023-02-01T08:13:01;6.54;99.99
13496;DHT22;6820;49.374;8.452;2023-02-01T08:17:03;6.63;99.99
13496;DHT22;6820;49.374;8.452;2023-02-01T08:21:09;6.71;99.99
13496;DHT22;6820;49.374;8.452;2023-02-01T08:25:13;6.83;99.99
13496;DHT22;6820;49.374;8.452;2023-02-01T08:29:14;6.81;99.99
13496;DHT22;6820;49.374;8.452;2023-02-01T08:33:16;6.83;99.99
13496;DHT22;6820;49.374;8.452;2023-02-01T08:37:18;6.93;99.99
13496;DHT22;6820;49.374;8.452;2023-02-01T08:41:20;6.91;99.99
13496;DHT22;6820;49.374;8.452;2023-02-01T08:45:25;6.90;99.99
13496;DHT22;6820;49.374;8.452;2023-02-01T08:49:29;6.91;99.99
13496;DHT22;6820;49.374;8.452;2023-02-01T08:53:30;6.94;99.99
13496;DHT22;6820;49.374;8.452;2023-02-01T08:57:32;6.94;99.99
13496;DHT22;6820;49.374;8.452;2023-02-01T09:01:34;6.99;99.99
13496;DHT22;6820;49.374;8.452;2023-02-01T09:05:36;7.04;99.99
13496;DHT22;6820;49.374;8.452;2023-02-01T09:09:50;7.11;99.99
13496;DHT22;6820;49.374;8.452;2023-02-01T09:13:52;7.21;99.99
13496;DHT22;6820;49.374;8.452;2023-02-01T09:17:53;7.26;99.99
13496;DHT22;6820;49.374;8.452;2023-02-01T09:21:55;7.33;99.99
13496;DHT22;6820;49.374;8.452;2023-02-01T09:26:00;7.37;99.99
13496;DHT22;6820;49.374;8.452;2023-02-01T09:30:03;7.51;99.99
13496;DHT22;6820;49.374;8.452;2023-02-01T09:34:06;7.58;99.99
13496;DHT22;6820;49.374;8.452;2023-02-01T09:38:08;7.62;99.99
13496;DHT22;6820;49.374;8.452;2023-02-01T09:46:27;7.79;99.99
13496;DHT22;6820;49.374;8.452;2023-02-01T09:50:32;7.82;99.99
13496;DHT22;6820;49.374;8.452;2023-02-01T09:58:59;7.81;99.99
13496;DHT22;6820;49.374;8.452;2023-02-01T10:03:24;7.74;99.99
13496;DHT22;6820;49.374;8.452;2023-02-01T10:11:56;7.70;99.99
13496;DHT22;6820;49.374;8.452;2023-02-01T10:16:16;7.69;99.99
13496;DHT22;6820;49.374;8.452;2023-02-01T10:25:21;7.66;99.99
13496;DHT22;6820;49.374;8.452;2023-02-01T10:29:31;7.63;99.99
13496;DHT22;6820;49.374;8.452;2023-02-01T10:37:47;7.66;99.99
13496;DHT22;6820;49.374;8.452;2023-02-01T10:41:49;7.62;99.99
13496;DHT22;6820;49.374;8.452;2023-02-01T10:45:51;7.63;99.99
13496;DHT22;6820;49.374;8.452;2023-02-01T10:50:04;7.67;99.99
13496;DHT22;6820;49.374;8.452;2023-02-01T10:54:18;7.74;99.99
13496;DHT22;6820;49.374;8.452;2023-02-01T10:58:28;7.82;99.99
13496;DHT22;6820;49.374;8.452;2023-02-01T11:02:33;7.85;99.99
13496;DHT22;6820;49.374;8.452;2023-02-01T11:06:37;7.89;99.99
13496;DHT22;6820;49.374;8.452;2023-02-01T11:10:41;7.92;99.99
13496;DHT22;6820;49.374;8.452;2023-02-01T11:14:43;7.94;99.99
13496;DHT22;6820;49.374;8.452;2023-02-01T11:18:52;7.99;99.99
13496;DHT22;6820;49.374;8.452;2023-02-01T11:22:56;8.04;99.99
13496;DHT22;6820;49.374;8.452;2023-02-01T11:26:59;8.02;99.99
13496;DHT22;6820;49.374;8.452;2023-02-01T11:31:08;8.02;99.99
13496;DHT22;6820;49.374;8.452;2023-02-01T11:35:14;8.04;99.99
13496;DHT22;6820;49.374;8.452;2023-02-01T11:39:25;8.04;99.99
13496;DHT22;6820;49.374;8.452;2023-02-01T11:43:29;8.04;99.99
13496;DHT22;6820;49.374;8.452;2023-02-01T11:47:31;8.06;99.99
13496;DHT22;6820;49.374;8.452;2023-02-01T11:56:14;8.18;99.99
13496;DHT22;6820;49.374;8.452;2023-02-01T12:09:00;8.21;99.99
13496;DHT22;6820;49.374;8.452;2023-02-01T12:13:14;8.24;99.99
13496;DHT22;6820;49.374;8.452;2023-02-01T12:26:21;8.17;99.99
13496;DHT22;6820;49.374;8.452;2023-02-01T12:35:44;8.00;99.99
13496;DHT22;6820;49.374;8.452;2023-02-01T12:52:58;7.99;99.99
13496;DHT22;6820;49.374;8.452;2023-02-01T12:57:11;7.94;99.99
13496;DHT22;6820;49.374;8.452;2023-02-01T13:01:27;8.00;99.99
13496;DHT22;6820;49.374;8.452;2023-02-01T13:05:47;7.96;99.99
13496;DHT22;6820;49.374;8.452;2023-02-01T13:09:59;7.94;99.99
13496;DHT22;6820;49.374;8.452;2023-02-01T13:18:36;7.95;99.99
13496;DHT22;6820;49.374;8.452;2023-02-01T13:22:40;7.95;99.99
13496;DHT22;6820;49.374;8.452;2023-02-01T13:26:45;8.03;99.99
13496;DHT22;6820;49.374;8.452;2023-02-01T13:43:44;8.03;99.99
13496;DHT22;6820;49.374;8.452;2023-02-01T13:47:52;8.00;99.99
13496;DHT22;6820;49.374;8.452;2023-02-01T13:51:57;7.96;99.99
13496;DHT22;6820;49.374;8.452;2023-02-01T13:56:03;7.94;99.99
13496;DHT22;6820;49.374;8.452;2023-02-01T14:04:50;7.84;99.99
13496;DHT22;6820;49.374;8.452;2023-02-01T14:13:13;7.82;99.99
13496;DHT22;6820;49.374;8.452;2023-02-01T14:17:31;7.81;99.99
13496;DHT22;6820;49.374;8.452;2023-02-01T14:21:47;7.77;99.99
13496;DHT22;6820;49.374;8.452;2023-02-01T14:26:00;7.84;99.99
13496;DHT22;6820;49.374;8.452;2023-02-01T14:30:05;7.99;99.99
13496;DHT22;6820;49.374;8.452;2023-02-01T14:34:53;8.00;99.99
13496;DHT22;6820;49.374;8.452;2023-02-01T14:38:49;8.00;99.99
13496;DHT22;6820;49.374;8.452;2023-02-01T14:42:52;8.02;99.99
13496;DHT22;6820;49.374;8.452;2023-02-01T14:47:11;8.04;99.99
13496;DHT22;6820;49.374;8.452;2023-02-01T14:51:28;8.10;99.99
13496;DHT22;6820;49.374;8.452;2023-02-01T14:59:59;8.12;99.99
13496;DHT22;6820;49.374;8.452;2023-02-01T15:04:15;8.09;99.99
13496;DHT22;6820;49.374;8.452;2023-02-01T15:08:21;8.04;99.99
13496;DHT22;6820;49.374;8.452;2023-02-01T15:12:29;7.99;99.99
13496;DHT22;6820;49.374;8.452;2023-02-01T15:16:32;8.00;99.99
13496;DHT22;6820;49.374;8.452;2023-02-01T15:20:34;8.00;99.99
13496;DHT22;6820;49.374;8.452;2023-02-01T15:24:38;8.03;99.99
13496;DHT22;6820;49.374;8.452;2023-02-01T15:28:39;8.07;99.99
13496;DHT22;6820;49.374;8.452;2023-02-01T15:32:41;8.09;99.99
13496;DHT22;6820;49.374;8.452;2023-02-01T15:36:43;8.07;99.99
13496;DHT22;6820;49.374;8.452;2023-02-01T15:41:09;8.06;99.99
13496;DHT22;6820;49.374;8.452;2023-02-01T15:45:21;8.03;99.99
13496;DHT22;6820;49.374;8.452;2023-02-01T15:53:28;7.94;99.99
13496;DHT22;6820;49.374;8.452;2023-02-01T15:57:33;7.86;99.99
13496;DHT22;6820;49.374;8.452;2023-02-01T16:01:37;7.81;99.99
13496;DHT22;6820;49.374;8.452;2023-02-01T16:05:42;7.77;99.99
13496;DHT22;6820;49.374;8.452;2023-02-01T16:09:51;7.76;99.99
13496;DHT22;6820;49.374;8.452;2023-02-01T16:13:55;7.71;99.99
13496;DHT22;6820;49.374;8.452;2023-02-01T16:17:56;7.70;99.99
13496;DHT22;6820;49.374;8.452;2023-02-01T16:21:58;7.70;99.99
13496;DHT22;6820;49.374;8.452;2023-02-01T16:26:00;7.69;99.99
13496;DHT22;6820;49.374;8.452;2023-02-01T16:30:01;7.66;99.99
13496;DHT22;6820;49.374;8.452;2023-02-01T16:34:04;7.55;99.99
13496;DHT22;6820;49.374;8.452;2023-02-01T16:38:17;7.52;99.99
13496;DHT22;6820;49.374;8.452;2023-02-01T16:42:22;7.51;99.99
13496;DHT22;6820;49.374;8.452;2023-02-01T16:46:25;7.51;99.99
13496;DHT22;6820;49.374;8.452;2023-02-01T16:50:31;7.48;99.99
13496;DHT22;6820;49.374;8.452;2023-02-01T16:54:34;7.45;99.99
13496;DHT22;6820;49.374;8.452;2023-02-01T16:58:35;7.41;99.99
13496;DHT22;6820;49.374;8.452;2023-02-01T17:02:37;7.44;99.99
13496;DHT22;6820;49.374;8.452;2023-02-01T17:06:41;7.47;99.99
13496;DHT22;6820;49.374;8.452;2023-02-01T17:10:43;7.47;99.99
13496;DHT22;6820;49.374;8.452;2023-02-01T17:14:44;7.48;99.99
13496;DHT22;6820;49.374;8.452;2023-02-01T17:18:47;7.45;99.99
13496;DHT22;6820;49.374;8.452;2023-02-01T17:22:54;7.45;99.99
13496;DHT22;6820;49.374;8.452;2023-02-01T17:26:56;7.47;99.99
13496;DHT22;6820;49.374;8.452;2023-02-01T17:30:58;7.50;99.99
13496;DHT22;6820;49.374;8.452;2023-02-01T17:35:00;7.47;99.99
13496;DHT22;6820;49.374;8.452;2023-02-01T17:39:02;7.42;99.99
13496;DHT22;6820;49.374;8.452;2023-02-01T17:43:09;7.42;99.99
13496;DHT22;6820;49.374;8.452;2023-02-01T17:47:13;7.47;99.99
13496;DHT22;6820;49.374;8.452;2023-02-01T17:51:16;7.51;99.99
13496;DHT22;6820;49.374;8.452;2023-02-01T17:55:20;7.51;99.99
13496;DHT22;6820;49.374;8.452;2023-02-01T17:59:25;7.55;99.99
13496;DHT22;6820;49.374;8.452;2023-02-01T18:03:28;7.54;99.99
13496;DHT22;6820;49.374;8.452;2023-02-01T18:07:31;7.50;99.99
13496;DHT22;6820;49.374;8.452;2023-02-01T18:11:33;7.50;99.99
13496;DHT22;6820;49.374;8.452;2023-02-01T18:15:35;7.45;99.99
13496;DHT22;6820;49.374;8.452;2023-02-01T18:19:36;7.42;99.99
13496;DHT22;6820;49.374;8.452;2023-02-01T18:23:38;7.34;99.99
13496;DHT22;6820;49.374;8.452;2023-02-01T18:27:39;7.32;99.99
13496;DHT22;6820;49.374;8.452;2023-02-01T18:31:44;7.32;99.99
13496;DHT22;6820;49.374;8.452;2023-02-01T18:35:49;7.33;99.99
13496;DHT22;6820;49.374;8.452;2023-02-01T18:39:51;7.32;99.99
13496;DHT22;6820;49.374;8.452;2023-02-01T18:43:52;7.30;99.99
13496;DHT22;6820;49.374;8.452;2023-02-01T18:47:54;7.32;99.99
13496;DHT22;6820;49.374;8.452;2023-02-01T18:51:56;7.34;99.99
13496;DHT22;6820;49.374;8.452;2023-02-01T18:55:58;7.42;99.99
13496;DHT22;6820;49.374;8.452;2023-02-01T18:59:59;7.44;99.99
13496;DHT22;6820;49.374;8.452;2023-02-01T19:04:01;7.47;99.99
13496;DHT22;6820;49.374;8.452;2023-02-01T19:08:19;7.47;99.99
13496;DHT22;6820;49.374;8.452;2023-02-01T19:12:20;7.47;99.99
13496;DHT22;6820;49.374;8.452;2023-02-01T19:16:22;7.47;99.99
13496;DHT22;6820;49.374;8.452;2023-02-01T19:20:24;7.51;99.99
13496;DHT22;6820;49.374;8.452;2023-02-01T19:24:27;7.51;99.99
13496;DHT22;6820;49.374;8.452;2023-02-01T19:28:29;7.55;99.99
13496;DHT22;6820;49.374;8.452;2023-02-01T19:32:31;7.58;99.99
13496;DHT22;6820;49.374;8.452;2023-02-01T19:36:33;7.62;99.99
13496;DHT22;6820;49.374;8.452;2023-02-01T19:40:34;7.63;99.99
13496;DHT22;6820;49.374;8.452;2023-02-01T19:44:36;7.66;99.99
13496;DHT22;6820;49.374;8.452;2023-02-01T19:48:37;7.66;99.99
13496;DHT22;6820;49.374;8.452;2023-02-01T19:52:39;7.63;99.99
13496;DHT22;6820;49.374;8.452;2023-02-01T19:56:41;7.62;99.99
13496;DHT22;6820;49.374;8.452;2023-02-01T20:00:44;7.55;99.99
13496;DHT22;6820;49.374;8.452;2023-02-01T20:04:46;7.51;99.99
13496;DHT22;6820;49.374;8.452;2023-02-01T20:08:47;7.50;99.99
13496;DHT22;6820;49.374;8.452;2023-02-01T20:12:49;7.44;99.99
13496;DHT22;6820;49.374;8.452;2023-02-01T20:16:51;7.37;99.99
13496;DHT22;6820;49.374;8.452;2023-02-01T20:20:56;7.42;99.99
13496;DHT22;6820;49.374;8.452;2023-02-01T20:24:58;7.45;99.99
13496;DHT22;6820;49.374;8.452;2023-02-01T20:29:02;7.44;99.99
13496;DHT22;6820;49.374;8.452;2023-02-01T20:33:04;7.44;99.99
13496;DHT22;6820;49.374;8.452;2023-02-01T20:37:05;7.47;99.99
13496;DHT22;6820;49.374;8.452;2023-02-01T20:41:07;7.52;99.99
13496;DHT22;6820;49.374;8.452;2023-02-01T20:45:09;7.55;99.99
13496;DHT22;6820;49.374;8.452;2023-02-01T20:49:11;7.54;99.99
13496;DHT22;6820;49.374;8.452;2023-02-01T20:53:13;7.62;99.99
13496;DHT22;6820;49.374;8.452;2023-02-01T20:57:26;7.62;99.99
13496;DHT22;6820;49.374;8.452;2023-02-01T21:01:28;7.62;99.99
13496;DHT22;6820;49.374;8.452;2023-02-01T21:05:30;7.67;99.99
13496;DHT22;6820;49.374;8.452;2023-02-01T21:09:40;7.70;99.99
13496;DHT22;6820;49.374;8.452;2023-02-01T21:13:43;7.71;99.99
13496;DHT22;6820;49.374;8.452;2023-02-01T21:17:50;7.77;99.99
13496;DHT22;6820;49.374;8.452;2023-02-01T21:21:52;7.84;99.99
13496;DHT22;6820;49.374;8.452;2023-02-01T21:25:54;7.85;99.99
13496;DHT22;6820;49.374;8.452;2023-02-01T21:30:02;7.86;99.99
13496;DHT22;6820;49.374;8.452;2023-02-01T21:34:06;7.88;99.99
13496;DHT22;6820;49.374;8.452;2023-02-01T21:38:08;7.86;99.99
13496;DHT22;6820;49.374;8.452;2023-02-01T21:42:10;7.85;99.99
13496;DHT22;6820;49.374;8.452;2023-02-01T21:46:14;7.86;99.99
13496;DHT22;6820;49.374;8.452;2023-02-01T21:50:18;7.88;99.99
13496;DHT22;6820;49.374;8.452;2023-02-01T21:54:20;7.85;99.99
13496;DHT22;6820;49.374;8.452;2023-02-01T21:58:22;7.86;99.99
13496;DHT22;6820;49.374;8.452;2023-02-01T22:02:24;7.82;99.99
13496;DHT22;6820;49.374;8.452;2023-02-01T22:06:27;7.84;99.99
13496;DHT22;6820;49.374;8.452;2023-02-01T22:10:33;7.84;99.99
13496;DHT22;6820;49.374;8.452;2023-02-01T22:14:34;7.86;99.99
13496;DHT22;6820;49.374;8.452;2023-02-01T22:18:36;7.88;99.99
13496;DHT22;6820;49.374;8.452;2023-02-01T22:22:38;7.89;99.99
13496;DHT22;6820;49.374;8.452;2023-02-01T22:26:39;7.86;99.99
13496;DHT22;6820;49.374;8.452;2023-02-01T22:30:41;7.85;99.99
13496;DHT22;6820;49.374;8.452;2023-02-01T22:34:43;7.81;99.99
13496;DHT22;6820;49.374;8.452;2023-02-01T22:38:45;7.79;99.99
13496;DHT22;6820;49.374;8.452;2023-02-01T22:42:48;7.79;99.99
13496;DHT22;6820;49.374;8.452;2023-02-01T22:46:51;7.77;99.99
13496;DHT22;6820;49.374;8.452;2023-02-01T22:50:59;7.76;99.99
13496;DHT22;6820;49.374;8.452;2023-02-01T22:55:01;7.76;99.99
13496;DHT22;6820;49.374;8.452;2023-02-01T22:59:05;7.76;99.99
13496;DHT22;6820;49.374;8.452;2023-02-01T23:03:07;7.73;99.99
13496;DHT22;6820;49.374;8.452;2023-02-01T23:07:09;7.73;99.99
13496;DHT22;6820;49.374;8.452;2023-02-01T23:11:10;7.74;99.99
13496;DHT22;6820;49.374;8.452;2023-02-01T23:15:13;7.76;99.99
13496;DHT22;6820;49.374;8.452;2023-02-01T23:19:16;7.77;99.99
13496;DHT22;6820;49.374;8.452;2023-02-01T23:23:18;7.79;99.99
13496;DHT22;6820;49.374;8.452;2023-02-01T23:27:20;7.77;99.99
13496;DHT22;6820;49.374;8.452;2023-02-01T23:31:22;7.79;99.99
13496;DHT22;6820;49.374;8.452;2023-02-01T23:35:25;7.77;99.99
13496;DHT22;6820;49.374;8.452;2023-02-01T23:39:27;7.79;99.99
13496;DHT22;6820;49.374;8.452;2023-02-01T23:43:29;7.76;99.99
13496;DHT22;6820;49.374;8.452;2023-02-01T23:47:50;7.76;99.99
13496;DHT22;6820;49.374;8.452;2023-02-01T23:51:52;7.74;99.99
13496;DHT22;6820;49.374;8.452;2023-02-01T23:55:54;7.74;99.99
13496;DHT22;6820;49.374;8.452;2023-02-01T23:59:56;7.71;99.99
